createdAt,value
2018-12-10T00:01:36.490Z,3.70
2018-12-10T00:04:03.897Z,3.53
2018-12-10T00:06:31.310Z,3.67
2018-12-10T00:08:58.736Z,3.83
2018-12-10T00:11:26.155Z,3.83
2018-12-10T00:13:53.568Z,4.30
2018-12-10T00:16:20.994Z,4.63
2018-12-10T00:18:48.407Z,4.87
2018-12-10T00:21:15.853Z,5.23
2018-12-10T00:23:43.290Z,5.57
2018-12-10T00:26:10.686Z,8.37
2018-12-10T00:28:38.103Z,6.70
2018-12-10T00:31:05.520Z,7.00
2018-12-10T00:33:32.921Z,6.20
2018-12-10T00:36:00.351Z,5.93
2018-12-10T00:38:27.775Z,6.70
2018-12-10T00:40:55.167Z,6.90
2018-12-10T00:43:22.623Z,6.97
2018-12-10T00:45:50.031Z,6.60
2018-12-10T00:48:17.466Z,6.17
2018-12-10T00:50:44.882Z,7.07
2018-12-10T00:53:12.317Z,6.50
2018-12-10T00:55:39.783Z,6.27
2018-12-10T00:58:07.136Z,6.37
2018-12-10T01:00:34.570Z,5.60
2018-12-10T01:03:01.988Z,6.47
2018-12-10T01:05:29.423Z,6.13
2018-12-10T01:07:56.838Z,5.87
2018-12-10T01:10:24.269Z,6.43
2018-12-10T01:12:51.668Z,6.27
2018-12-10T01:15:19.099Z,6.10
2018-12-10T01:17:46.514Z,6.47
2018-12-10T01:20:13.934Z,5.90
2018-12-10T01:22:41.386Z,5.63
2018-12-10T01:25:08.790Z,5.97
2018-12-10T01:27:36.243Z,5.10
2018-12-10T01:30:03.622Z,4.77
2018-12-10T01:32:31.084Z,4.80
2018-12-10T01:34:58.501Z,4.37
2018-12-10T01:37:25.927Z,4.30
2018-12-10T01:39:53.332Z,3.90
2018-12-10T01:42:20.771Z,3.80
2018-12-10T01:44:48.190Z,4.23
2018-12-10T01:47:15.666Z,4.17
2018-12-10T01:49:43.060Z,3.37
2018-12-10T01:52:10.466Z,3.63
2018-12-10T01:54:37.885Z,3.70
2018-12-10T01:57:05.302Z,3.60
2018-12-10T01:59:32.754Z,4.27
2018-12-10T02:02:00.176Z,3.70
2018-12-10T02:04:27.619Z,3.10
2018-12-10T02:06:55.021Z,3.70
2018-12-10T02:09:22.433Z,3.77
2018-12-10T02:11:49.863Z,3.70
2018-12-10T02:14:17.289Z,3.80
2018-12-10T02:16:44.702Z,4.50
2018-12-10T02:19:12.128Z,3.80
2018-12-10T02:21:39.534Z,3.57
2018-12-10T02:24:06.966Z,3.40
2018-12-10T02:26:34.395Z,3.00
2018-12-10T02:29:14.136Z,3.43
2018-12-10T02:31:41.576Z,3.40
2018-12-10T02:34:08.981Z,3.60
2018-12-10T02:36:36.405Z,3.37
2018-12-10T02:39:03.803Z,3.33
2018-12-10T02:41:31.265Z,3.27
2018-12-10T02:43:58.656Z,3.67
2018-12-10T02:46:26.049Z,3.73
2018-12-10T02:48:53.498Z,3.60
2018-12-10T02:51:20.921Z,3.13
2018-12-10T02:53:48.309Z,3.30
2018-12-10T02:56:15.731Z,3.80
2018-12-10T02:58:43.154Z,3.30
2018-12-10T03:01:10.614Z,3.60
2018-12-10T03:03:38.020Z,3.00
2018-12-10T03:06:05.421Z,3.93
2018-12-10T03:08:32.873Z,3.80
2018-12-10T03:11:00.280Z,3.60
2018-12-10T03:13:27.717Z,3.70
2018-12-10T03:15:55.133Z,4.20
2018-12-10T03:18:22.553Z,3.37
2018-12-10T03:20:49.966Z,4.60
2018-12-10T03:23:17.399Z,3.80
2018-12-10T03:25:44.808Z,3.30
2018-12-10T03:28:12.263Z,3.70
2018-12-10T03:30:39.678Z,4.80
2018-12-10T03:33:07.079Z,4.13
2018-12-10T03:35:34.519Z,4.10
2018-12-10T03:38:01.912Z,4.00
2018-12-10T03:40:29.368Z,3.50
2018-12-10T03:42:56.795Z,4.53
2018-12-10T03:45:24.230Z,4.83
2018-12-10T03:47:51.641Z,3.77
2018-12-10T03:50:19.062Z,4.03
2018-12-10T03:52:46.472Z,3.77
2018-12-10T03:55:13.909Z,4.03
2018-12-10T03:57:41.329Z,4.03
2018-12-10T04:00:08.766Z,4.53
2018-12-10T04:02:36.175Z,4.18
2018-12-10T04:05:03.607Z,4.10
2018-12-10T04:07:31.030Z,3.93
2018-12-10T04:09:58.444Z,4.50
2018-12-10T04:12:25.881Z,5.03
2018-12-10T04:14:53.288Z,4.40
2018-12-10T04:17:20.830Z,4.80
2018-12-10T04:19:48.233Z,4.13
2018-12-10T04:22:15.677Z,4.03
2018-12-10T04:24:43.072Z,4.10
2018-12-10T04:27:10.498Z,3.40
2018-12-10T04:29:37.910Z,4.33
2018-12-10T04:32:05.449Z,5.13
2018-12-10T04:34:32.856Z,4.40
2018-12-10T04:37:00.275Z,4.07
2018-12-10T04:39:27.715Z,4.50
2018-12-10T04:41:55.127Z,4.40
2018-12-10T04:44:22.561Z,4.40
2018-12-10T04:46:49.981Z,4.87
2018-12-10T04:49:17.432Z,4.40
2018-12-10T04:51:44.846Z,4.83
2018-12-10T04:54:12.284Z,4.53
2018-12-10T04:56:39.702Z,4.73
2018-12-10T04:59:07.225Z,4.10
2018-12-10T05:01:34.534Z,4.20
2018-12-10T05:04:01.992Z,4.63
2018-12-10T05:06:29.408Z,4.57
2018-12-10T05:08:56.834Z,4.50
2018-12-10T05:11:24.231Z,4.33
2018-12-10T05:13:51.660Z,4.60
2018-12-10T05:16:19.091Z,4.13
2018-12-10T05:18:46.501Z,4.27
2018-12-10T05:21:13.934Z,4.67
2018-12-10T05:23:41.357Z,4.67
2018-12-10T05:26:08.799Z,4.40
2018-12-10T05:28:36.199Z,4.13
2018-12-10T05:31:03.639Z,4.53
2018-12-10T05:33:31.083Z,4.57
2018-12-10T05:35:58.504Z,4.83
2018-12-10T05:38:25.906Z,4.60
2018-12-10T05:40:53.352Z,4.77
2018-12-10T05:43:20.764Z,4.20
2018-12-10T05:45:48.187Z,4.53
2018-12-10T05:48:15.593Z,4.23
2018-12-10T05:50:43.011Z,4.80
2018-12-10T05:53:10.458Z,4.10
2018-12-10T05:55:37.904Z,4.33
2018-12-10T05:58:05.343Z,4.60
2018-12-10T06:00:32.762Z,4.17
2018-12-10T06:03:00.200Z,3.90
2018-12-10T06:05:27.602Z,3.83
2018-12-10T06:07:55.034Z,4.20
2018-12-10T06:10:22.416Z,3.93
2018-12-10T06:12:49.862Z,4.17
2018-12-10T06:15:17.280Z,3.80
2018-12-10T06:17:44.736Z,3.23
2018-12-10T06:20:12.138Z,4.67
2018-12-10T06:22:39.537Z,3.47
2018-12-10T06:25:06.970Z,3.77
2018-12-10T06:27:34.382Z,3.80
2018-12-10T06:30:01.828Z,4.20
2018-12-10T06:32:29.245Z,3.60
2018-12-10T06:34:56.682Z,4.07
2018-12-10T06:37:24.122Z,4.73
2018-12-10T06:39:51.588Z,3.53
2018-12-10T06:42:18.973Z,3.50
2018-12-10T06:44:46.411Z,3.90
2018-12-10T06:47:13.826Z,3.80
2018-12-10T06:49:41.318Z,4.37
2018-12-10T06:52:08.700Z,3.80
2018-12-10T06:54:36.106Z,3.53
2018-12-10T06:57:03.552Z,3.30
2018-12-10T06:59:30.967Z,4.23
2018-12-10T07:01:58.402Z,3.73
2018-12-10T07:04:25.812Z,3.13
2018-12-10T07:06:53.227Z,4.20
2018-12-10T07:09:20.655Z,3.40
2018-12-10T07:11:48.100Z,3.60
2018-12-10T07:14:15.518Z,3.70
2018-12-10T07:16:42.984Z,3.20
2018-12-10T07:19:10.407Z,4.20
2018-12-10T07:21:37.885Z,4.23
2018-12-10T07:24:05.238Z,3.93
2018-12-10T07:26:32.668Z,3.27
2018-12-10T07:29:00.102Z,4.00
2018-12-10T07:31:27.523Z,3.27
2018-12-10T07:33:54.961Z,3.90
2018-12-10T07:36:22.407Z,3.83
2018-12-10T07:38:49.819Z,3.60
2018-12-10T07:41:17.247Z,4.97
2018-12-10T07:43:44.699Z,4.13
2018-12-10T07:46:12.118Z,3.60
2018-12-10T07:48:39.551Z,3.97
2018-12-10T07:51:06.955Z,4.30
2018-12-10T07:53:34.406Z,4.20
2018-12-10T07:56:01.870Z,4.60
2018-12-10T07:58:29.322Z,5.37
2018-12-10T08:00:56.756Z,5.30
2018-12-10T08:03:24.186Z,4.60
2018-12-10T08:05:51.630Z,4.57
2018-12-10T08:08:19.032Z,4.97
2018-12-10T08:10:46.474Z,5.00
2018-12-10T08:13:13.881Z,5.33
2018-12-10T08:15:41.313Z,5.50
2018-12-10T08:18:08.727Z,5.00
2018-12-10T08:20:36.157Z,5.03
2018-12-10T08:23:03.590Z,4.90
2018-12-10T08:25:31.016Z,4.57
2018-12-10T08:27:58.425Z,5.40
2018-12-10T08:30:25.881Z,5.67
2018-12-10T08:32:53.356Z,5.10
2018-12-10T08:35:20.746Z,5.07
2018-12-10T08:37:48.200Z,5.57
2018-12-10T08:40:15.629Z,6.33
2018-12-10T08:42:43.002Z,5.93
2018-12-10T08:45:10.434Z,6.40
2018-12-10T08:47:37.847Z,6.40
2018-12-10T08:50:05.268Z,6.70
2018-12-10T08:52:32.686Z,6.00
2018-12-10T08:55:00.124Z,6.60
2018-12-10T08:57:27.524Z,6.37
2018-12-10T08:59:54.955Z,7.63
2018-12-10T09:02:22.383Z,7.13
2018-12-10T09:04:49.818Z,6.83
2018-12-10T09:07:17.302Z,8.33
2018-12-10T09:09:44.685Z,6.97
2018-12-10T09:12:12.115Z,8.10
2018-12-10T09:14:39.518Z,7.60
2018-12-10T09:17:06.952Z,8.67
2018-12-10T09:19:34.378Z,6.73
2018-12-10T09:22:01.814Z,7.17
2018-12-10T09:24:29.217Z,8.47
2018-12-10T09:26:56.638Z,7.90
2018-12-10T09:29:24.164Z,8.13
2018-12-10T09:31:51.510Z,8.60
2018-12-10T09:34:18.915Z,7.53
2018-12-10T09:36:46.337Z,8.50
2018-12-10T09:39:13.824Z,7.53
2018-12-10T09:41:41.235Z,7.63
2018-12-10T09:44:08.705Z,7.17
2018-12-10T09:46:36.135Z,6.13
2018-12-10T09:49:03.583Z,6.20
2018-12-10T09:51:30.985Z,6.40
2018-12-10T09:53:58.391Z,6.50
2018-12-10T09:56:25.941Z,5.30
2018-12-10T09:58:53.260Z,5.17
2018-12-10T10:01:20.687Z,5.83
2018-12-10T10:03:48.130Z,5.23
2018-12-10T10:06:15.558Z,5.60
2018-12-10T10:08:42.993Z,5.43
2018-12-10T10:11:10.477Z,5.73
2018-12-10T10:13:37.955Z,5.53
2018-12-10T10:16:05.359Z,5.27
2018-12-10T10:18:32.805Z,5.53
2018-12-10T10:21:00.215Z,6.00
2018-12-10T10:23:27.653Z,6.20
2018-12-10T10:25:55.099Z,7.17
2018-12-10T10:28:22.570Z,6.07
2018-12-10T10:30:50.007Z,6.10
2018-12-10T10:33:17.456Z,5.27
2018-12-10T10:35:44.943Z,5.70
2018-12-10T10:38:12.311Z,6.40
2018-12-10T10:40:39.741Z,5.50
2018-12-10T10:43:07.171Z,5.83
2018-12-10T10:45:35.096Z,5.50
2018-12-10T10:48:02.034Z,5.00
2018-12-10T10:50:29.473Z,4.80
2018-12-10T10:52:56.908Z,5.73
2018-12-10T10:55:24.310Z,5.30
2018-12-10T10:57:51.737Z,5.73
2018-12-10T11:00:37.468Z,5.53
2018-12-10T11:03:04.890Z,5.80
2018-12-10T11:05:32.302Z,4.87
2018-12-10T11:07:59.753Z,5.63
2018-12-10T11:10:28.375Z,5.13
2018-12-10T11:12:54.601Z,4.90
2018-12-10T11:15:22.005Z,4.63
2018-12-10T11:17:49.476Z,4.63
2018-12-10T11:20:16.919Z,4.40
2018-12-10T11:22:44.337Z,4.67
2018-12-10T11:25:11.783Z,6.27
2018-12-10T11:27:39.231Z,4.97
2018-12-10T11:30:06.649Z,4.77
2018-12-10T11:32:34.213Z,4.20
2018-12-10T11:35:01.567Z,4.30
2018-12-10T11:37:28.981Z,4.20
2018-12-10T11:39:56.400Z,5.03
2018-12-10T11:42:23.831Z,4.10
2018-12-10T11:44:51.252Z,3.83
2018-12-10T11:47:18.700Z,3.90
2018-12-10T11:49:46.103Z,4.27
2018-12-10T11:52:13.545Z,4.50
2018-12-10T11:54:40.974Z,3.93
2018-12-10T11:57:08.373Z,4.07
2018-12-10T11:59:35.832Z,4.43
2018-12-10T12:02:03.248Z,4.27
2018-12-10T12:04:30.694Z,4.37
2018-12-10T12:06:58.144Z,4.73
2018-12-10T12:09:25.583Z,3.53
2018-12-10T12:11:53.000Z,3.87
2018-12-10T12:14:20.415Z,3.77
2018-12-10T12:16:47.976Z,3.57
2018-12-10T12:19:15.274Z,3.10
2018-12-10T12:21:42.731Z,3.07
2018-12-10T12:24:10.151Z,3.27
2018-12-10T12:26:37.586Z,3.40
2018-12-10T12:29:04.992Z,3.53
2018-12-10T12:31:32.419Z,3.97
2018-12-10T12:33:59.871Z,2.73
2018-12-10T12:36:27.403Z,2.70
2018-12-10T12:38:54.823Z,2.80
2018-12-10T12:41:22.230Z,2.43
2018-12-10T12:43:49.715Z,2.57
2018-12-10T12:46:17.102Z,3.03
2018-12-10T12:48:44.561Z,2.57
2018-12-10T12:51:11.977Z,2.20
2018-12-10T12:53:39.404Z,2.23
2018-12-10T12:56:06.814Z,1.90
2018-12-10T12:58:34.246Z,1.93
2018-12-10T13:01:01.683Z,1.60
2018-12-10T13:03:29.110Z,2.43
2018-12-10T13:05:56.557Z,1.70
2018-12-10T13:08:30.800Z,1.63
2018-12-10T13:10:51.425Z,1.70
2018-12-10T13:13:18.837Z,2.10
2018-12-10T13:15:46.286Z,2.93
2018-12-10T13:18:13.744Z,1.90
2018-12-10T13:20:41.202Z,1.83
2018-12-10T13:23:08.610Z,2.60
2018-12-10T13:25:36.054Z,2.93
2018-12-10T13:28:03.453Z,2.73
2018-12-10T13:30:30.956Z,2.00
2018-12-10T13:32:58.314Z,2.23
2018-12-10T13:35:25.761Z,2.63
2018-12-10T13:37:53.203Z,2.10
2018-12-10T13:40:20.660Z,7.37
2018-12-10T13:42:48.095Z,1.67
2018-12-10T13:45:15.536Z,1.80
2018-12-10T13:47:43.006Z,1.63
2018-12-10T13:50:10.451Z,2.20
2018-12-10T13:52:37.867Z,1.60
2018-12-10T13:55:05.298Z,1.90
2018-12-10T13:57:32.714Z,1.97
2018-12-10T14:00:03.080Z,1.70
2018-12-10T14:02:34.397Z,1.60
2018-12-10T14:05:02.225Z,1.80
2018-12-10T14:07:29.658Z,1.60
2018-12-10T14:09:57.079Z,1.70
2018-12-10T14:12:24.511Z,1.70
2018-12-10T14:14:52.003Z,1.80
2018-12-10T14:17:19.414Z,1.70
2018-12-10T14:19:47.026Z,1.87
2018-12-10T14:22:14.280Z,1.40
2018-12-10T14:24:42.760Z,1.57
2018-12-10T14:27:10.204Z,1.67
2018-12-10T14:29:37.618Z,2.00
2018-12-10T14:32:05.171Z,1.83
2018-12-10T14:34:32.592Z,1.90
2018-12-10T14:37:00.055Z,1.80
2018-12-10T14:39:27.478Z,1.70
2018-12-10T14:41:54.981Z,2.10
2018-12-10T14:44:22.443Z,1.60
2018-12-10T14:46:49.995Z,1.90
2018-12-10T14:49:17.312Z,1.57
2018-12-10T14:51:44.723Z,1.90
2018-12-10T14:54:12.196Z,1.80
2018-12-10T14:56:39.598Z,2.03
2018-12-10T14:59:07.034Z,1.60
2018-12-10T15:01:34.454Z,1.90
2018-12-10T15:04:01.961Z,1.93
2018-12-10T15:06:29.406Z,1.80
2018-12-10T15:08:56.830Z,2.03
2018-12-10T15:11:24.275Z,2.00
2018-12-10T15:13:51.709Z,2.07
2018-12-10T15:16:19.369Z,1.70
2018-12-10T15:18:46.780Z,2.73
2018-12-10T15:21:14.216Z,2.03
2018-12-10T15:23:41.625Z,1.77
2018-12-10T15:26:09.066Z,1.73
2018-12-10T15:28:36.479Z,1.90
2018-12-10T15:31:03.925Z,2.47
2018-12-10T15:33:31.356Z,2.37
2018-12-10T15:35:58.815Z,2.27
2018-12-10T15:38:26.244Z,3.30
2018-12-10T15:40:53.657Z,2.63
2018-12-10T15:43:21.105Z,3.00
2018-12-10T15:45:48.515Z,3.23
2018-12-10T15:48:15.971Z,3.77
2018-12-10T15:50:43.385Z,3.87
2018-12-10T15:53:10.874Z,3.87
2018-12-10T15:55:38.262Z,4.10
2018-12-10T15:58:05.743Z,3.43
2018-12-10T16:00:33.228Z,3.17
2018-12-10T16:03:00.666Z,3.50
2018-12-10T16:05:28.161Z,2.83
2018-12-10T16:07:55.545Z,1.97
2018-12-10T16:10:22.994Z,3.30
2018-12-10T16:12:50.387Z,3.80
2018-12-10T16:15:17.819Z,4.13
2018-12-10T16:17:45.255Z,4.00
2018-12-10T16:20:12.674Z,4.87
2018-12-10T16:22:40.114Z,4.27
2018-12-10T16:25:07.542Z,2.90
2018-12-10T16:27:35.019Z,3.43
2018-12-10T16:30:02.440Z,3.30
2018-12-10T16:32:29.853Z,3.40
2018-12-10T16:34:57.323Z,3.40
2018-12-10T16:37:24.702Z,3.40
2018-12-10T16:39:52.145Z,2.87
2018-12-10T16:42:19.572Z,2.80
2018-12-10T16:44:47.033Z,2.87
2018-12-10T16:47:14.464Z,2.50
2018-12-10T16:49:41.893Z,2.77
2018-12-10T16:52:09.353Z,2.60
2018-12-10T16:54:36.826Z,2.73
2018-12-10T16:57:04.232Z,2.67
2018-12-10T16:59:31.667Z,2.40
2018-12-10T17:01:59.105Z,2.80
2018-12-10T17:04:26.537Z,3.07
2018-12-10T17:06:53.943Z,3.20
2018-12-10T17:09:21.372Z,2.47
2018-12-10T17:11:48.819Z,2.83
2018-12-10T17:14:16.275Z,3.20
2018-12-10T17:16:43.731Z,3.50
2018-12-10T17:19:11.097Z,3.97
2018-12-10T17:21:38.548Z,3.30
2018-12-10T17:24:05.973Z,3.87
2018-12-10T17:26:33.386Z,4.87
2018-12-10T17:29:00.822Z,4.50
2018-12-10T17:31:28.308Z,4.27
2018-12-10T17:33:55.716Z,5.70
2018-12-10T17:36:23.191Z,3.90
2018-12-10T17:38:50.607Z,3.70
2018-12-10T17:41:18.045Z,3.70
2018-12-10T17:43:45.446Z,3.43
2018-12-10T17:46:12.894Z,3.57
2018-12-10T17:48:40.338Z,4.10
2018-12-10T17:51:07.748Z,3.50
2018-12-10T17:53:35.178Z,3.20
2018-12-10T17:56:02.607Z,3.20
2018-12-10T17:58:30.018Z,3.37
2018-12-10T18:00:57.490Z,2.87
2018-12-10T18:03:24.920Z,2.60
2018-12-10T18:05:52.385Z,2.23
2018-12-10T18:08:19.846Z,2.20
2018-12-10T18:10:47.261Z,2.07
2018-12-10T18:13:14.681Z,3.20
2018-12-10T18:15:42.093Z,2.57
2018-12-10T18:18:09.524Z,2.40
2018-12-10T18:20:36.952Z,2.90
2018-12-10T18:23:04.386Z,2.63
2018-12-10T18:25:31.816Z,3.30
2018-12-10T18:27:59.254Z,4.40
2018-12-10T18:30:26.654Z,4.80
2018-12-10T18:32:54.081Z,4.03
2018-12-10T18:35:21.488Z,4.30
2018-12-10T18:37:48.937Z,4.80
2018-12-10T18:40:16.360Z,4.70
2018-12-10T18:42:43.835Z,5.00
2018-12-10T18:45:11.272Z,5.53
2018-12-10T18:47:38.715Z,5.50
2018-12-10T18:50:06.183Z,5.00
2018-12-10T18:52:33.620Z,4.77
2018-12-10T18:55:01.018Z,4.37
2018-12-10T18:57:28.470Z,4.67
2018-12-10T18:59:55.878Z,4.43
2018-12-10T19:02:23.313Z,4.50
2018-12-10T19:04:50.848Z,5.23
2018-12-10T19:07:18.164Z,4.23
2018-12-10T19:09:45.616Z,4.83
2018-12-10T19:12:13.109Z,5.23
2018-12-10T19:14:40.549Z,5.60
2018-12-10T19:17:08.029Z,4.83
2018-12-10T19:19:35.423Z,4.40
2018-12-10T19:22:02.962Z,4.80
2018-12-10T19:24:30.319Z,4.13
2018-12-10T19:26:57.771Z,5.30
2018-12-10T19:29:25.180Z,4.30
2018-12-10T19:31:52.611Z,4.40
2018-12-10T19:34:20.062Z,4.63
2018-12-10T19:36:47.463Z,4.03
2018-12-10T19:39:14.870Z,4.27
2018-12-10T19:41:42.288Z,5.27
2018-12-10T19:44:09.870Z,4.13
2018-12-10T19:46:37.431Z,3.93
2018-12-10T19:49:04.885Z,3.60
2018-12-10T19:51:32.328Z,3.23
2018-12-10T19:54:00.077Z,4.00
2018-12-10T19:56:27.477Z,3.40
2018-12-10T19:58:54.904Z,3.87
2018-12-10T20:01:22.330Z,4.03
2018-12-10T20:03:49.789Z,3.70
2018-12-10T20:06:17.198Z,4.00
2018-12-10T20:08:44.652Z,3.70
2018-12-10T20:11:12.102Z,4.40
2018-12-10T20:13:39.488Z,4.57
2018-12-10T20:16:06.950Z,5.27
2018-12-10T20:18:34.367Z,5.33
2018-12-10T20:21:01.826Z,4.80
2018-12-10T20:23:29.232Z,5.07
2018-12-10T20:25:56.680Z,4.30
2018-12-10T20:28:24.097Z,4.20
2018-12-10T20:30:51.840Z,2.93
2018-12-10T20:33:18.969Z,3.33
2018-12-10T20:35:46.359Z,3.37
2018-12-10T20:38:13.768Z,3.00
2018-12-10T20:40:41.201Z,4.33
2018-12-10T20:43:08.604Z,3.80
2018-12-10T20:45:36.073Z,3.77
2018-12-10T20:48:03.502Z,4.30
2018-12-10T20:50:30.923Z,3.83
2018-12-10T20:52:58.337Z,4.10
2018-12-10T20:55:25.794Z,3.67
2018-12-10T20:57:53.223Z,4.60
2018-12-10T21:00:20.669Z,4.67
2018-12-10T21:02:48.100Z,4.07
2018-12-10T21:05:15.532Z,4.00
2018-12-10T21:07:42.950Z,4.50
2018-12-10T21:10:10.395Z,4.47
2018-12-10T21:12:37.817Z,5.10
2018-12-10T21:15:05.248Z,4.80
2018-12-10T21:17:32.656Z,5.03
2018-12-10T21:20:00.063Z,5.07
2018-12-10T21:22:27.516Z,5.17
2018-12-10T21:24:54.927Z,5.60
2018-12-10T21:27:22.356Z,10.87
2018-12-10T21:29:49.790Z,6.50
2018-12-10T21:32:17.202Z,6.90
2018-12-10T21:34:44.630Z,8.20
2018-12-10T21:37:12.049Z,7.73
2018-12-10T21:39:39.490Z,7.87
2018-12-10T21:42:06.893Z,9.07
2018-12-10T21:44:34.329Z,8.57
2018-12-10T21:47:01.742Z,8.77
2018-12-10T21:49:29.170Z,9.37
2018-12-10T21:51:56.619Z,9.00
2018-12-10T21:54:24.050Z,9.63
2018-12-10T21:56:51.458Z,10.93
2018-12-10T21:59:18.883Z,10.23
2018-12-10T22:01:46.315Z,10.80
2018-12-10T22:04:13.754Z,10.93
2018-12-10T22:06:41.189Z,10.87
2018-12-10T22:09:08.619Z,12.70
2018-12-10T22:11:36.074Z,12.90
2018-12-10T22:14:03.497Z,13.47
2018-12-10T22:16:30.903Z,13.77
2018-12-10T22:18:58.340Z,12.47
2018-12-10T22:21:25.765Z,13.10
2018-12-10T22:23:53.214Z,13.30
2018-12-10T22:26:20.655Z,13.60
2018-12-10T22:28:48.075Z,13.40
2018-12-10T22:31:15.531Z,13.87
2018-12-10T22:33:42.984Z,14.03
2018-12-10T22:36:10.432Z,13.90
2018-12-10T22:38:37.852Z,14.27
2018-12-10T22:41:05.280Z,14.30
2018-12-10T22:43:32.688Z,13.53
2018-12-10T22:46:00.116Z,13.73
2018-12-10T22:48:27.552Z,15.27
2018-12-10T22:50:54.988Z,14.17
2018-12-10T22:53:22.445Z,14.60
2018-12-10T22:56:04.861Z,14.33
2018-12-10T22:58:34.602Z,14.47
2018-12-10T23:01:00.712Z,15.77
2018-12-10T23:03:28.143Z,16.37
2018-12-10T23:05:55.592Z,15.50
2018-12-10T23:08:23.033Z,15.07
2018-12-10T23:10:50.450Z,15.50
2018-12-10T23:13:17.913Z,14.87
2018-12-10T23:15:45.328Z,14.87
2018-12-10T23:18:12.767Z,14.57
2018-12-10T23:20:40.199Z,14.10
2018-12-10T23:23:07.627Z,14.23
2018-12-10T23:25:35.051Z,15.23
2018-12-10T23:28:02.507Z,15.73
2018-12-10T23:30:31.333Z,14.90
2018-12-10T23:32:57.358Z,14.70
2018-12-10T23:35:24.808Z,13.77
2018-12-10T23:37:52.238Z,13.23
2018-12-10T23:40:19.646Z,13.33
2018-12-10T23:43:05.159Z,13.50
2018-12-10T23:45:32.608Z,13.47
2018-12-10T23:48:00.058Z,13.17
2018-12-10T23:50:27.498Z,12.03
2018-12-10T23:52:54.904Z,12.97
2018-12-10T23:55:22.358Z,12.10
2018-12-10T23:57:49.771Z,11.67
